sensor_id;sensor_type;location;lat;lon;timestamp;P1;durP1;ratioP1;P2;durP2;ratioP2
38615;SDS011;24370;51.986;4.666;2023-03-08T00:01:36;8.03;;;5.83;;
38615;SDS011;24370;51.986;4.666;2023-03-08T00:04:02;15.37;;;7.07;;
38615;SDS011;24370;51.986;4.666;2023-03-08T00:06:27;16.07;;;7.83;;
38615;SDS011;24370;51.986;4.666;2023-03-08T00:08:56;14.43;;;7.30;;
38615;SDS011;24370;51.986;4.666;2023-03-08T00:11:23;16.63;;;6.73;;
38615;SDS011;24370;51.986;4.666;2023-03-08T00:13:49;9.23;;;5.80;;
38615;SDS011;24370;51.986;4.666;2023-03-08T00:16:15;17.77;;;6.80;;
38615;SDS011;24370;51.986;4.666;2023-03-08T00:18:40;13.97;;;7.00;;
38615;SDS011;24370;51.986;4.666;2023-03-08T00:21:08;26.10;;;12.63;;
38615;SDS011;24370;51.986;4.666;2023-03-08T00:23:38;18.67;;;8.35;;
38615;SDS011;24370;51.986;4.666;2023-03-08T00:26:04;9.23;;;5.57;;
38615;SDS011;24370;51.986;4.666;2023-03-08T00:28:30;6.87;;;4.00;;
38615;SDS011;24370;51.986;4.666;2023-03-08T00:31:00;4.73;;;2.40;;
38615;SDS011;24370;51.986;4.666;2023-03-08T00:33:27;3.90;;;2.40;;
38615;SDS011;24370;51.986;4.666;2023-03-08T00:36:03;7.30;;;3.90;;
38615;SDS011;24370;51.986;4.666;2023-03-08T00:38:31;13.87;;;3.90;;
38615;SDS011;24370;51.986;4.666;2023-03-08T00:40:58;8.93;;;3.83;;
38615;SDS011;24370;51.986;4.666;2023-03-08T00:43:24;7.97;;;3.83;;
38615;SDS011;24370;51.986;4.666;2023-03-08T00:45:50;6.97;;;4.07;;
38615;SDS011;24370;51.986;4.666;2023-03-08T00:48:15;5.23;;;4.10;;
38615;SDS011;24370;51.986;4.666;2023-03-08T00:50:41;9.77;;;4.37;;
38615;SDS011;24370;51.986;4.666;2023-03-08T00:53:06;13.40;;;4.53;;
38615;SDS011;24370;51.986;4.666;2023-03-08T00:55:32;7.50;;;4.20;;
38615;SDS011;24370;51.986;4.666;2023-03-08T00:57:58;9.40;;;4.30;;
38615;SDS011;24370;51.986;4.666;2023-03-08T01:00:24;6.97;;;4.27;;
38615;SDS011;24370;51.986;4.666;2023-03-08T01:02:49;8.90;;;4.10;;
38615;SDS011;24370;51.986;4.666;2023-03-08T01:05:15;6.17;;;3.93;;
38615;SDS011;24370;51.986;4.666;2023-03-08T01:07:40;12.87;;;4.17;;
38615;SDS011;24370;51.986;4.666;2023-03-08T01:10:06;7.90;;;3.70;;
38615;SDS011;24370;51.986;4.666;2023-03-08T01:12:32;9.10;;;4.20;;
38615;SDS011;24370;51.986;4.666;2023-03-08T01:14:58;5.77;;;3.67;;
38615;SDS011;24370;51.986;4.666;2023-03-08T01:17:24;7.83;;;3.40;;
38615;SDS011;24370;51.986;4.666;2023-03-08T01:19:49;10.77;;;3.60;;
38615;SDS011;24370;51.986;4.666;2023-03-08T01:22:15;10.80;;;4.37;;
38615;SDS011;24370;51.986;4.666;2023-03-08T01:24:44;5.97;;;3.17;;
38615;SDS011;24370;51.986;4.666;2023-03-08T01:27:10;11.27;;;3.47;;
38615;SDS011;24370;51.986;4.666;2023-03-08T01:29:36;8.90;;;4.13;;
38615;SDS011;24370;51.986;4.666;2023-03-08T01:32:01;6.50;;;3.10;;
38615;SDS011;24370;51.986;4.666;2023-03-08T01:34:27;7.47;;;4.23;;
38615;SDS011;24370;51.986;4.666;2023-03-08T01:36:52;7.67;;;3.33;;
38615;SDS011;24370;51.986;4.666;2023-03-08T01:39:17;6.37;;;3.20;;
38615;SDS011;24370;51.986;4.666;2023-03-08T01:41:43;8.10;;;3.63;;
38615;SDS011;24370;51.986;4.666;2023-03-08T01:44:15;6.23;;;3.17;;
38615;SDS011;24370;51.986;4.666;2023-03-08T01:46:42;9.40;;;3.27;;
38615;SDS011;24370;51.986;4.666;2023-03-08T01:49:26;5.73;;;3.03;;
38615;SDS011;24370;51.986;4.666;2023-03-08T01:54:34;5.40;;;2.73;;
38615;SDS011;24370;51.986;4.666;2023-03-08T01:57:04;10.47;;;3.40;;
38615;SDS011;24370;51.986;4.666;2023-03-08T01:59:35;5.63;;;3.03;;
38615;SDS011;24370;51.986;4.666;2023-03-08T02:02:02;7.57;;;3.27;;
38615;SDS011;24370;51.986;4.666;2023-03-08T02:04:28;5.57;;;3.37;;
38615;SDS011;24370;51.986;4.666;2023-03-08T02:06:55;6.10;;;4.20;;
38615;SDS011;24370;51.986;4.666;2023-03-08T02:09:20;9.40;;;3.83;;
38615;SDS011;24370;51.986;4.666;2023-03-08T02:11:46;6.80;;;4.07;;
38615;SDS011;24370;51.986;4.666;2023-03-08T02:14:12;9.77;;;4.40;;
38615;SDS011;24370;51.986;4.666;2023-03-08T02:16:38;7.00;;;4.03;;
38615;SDS011;24370;51.986;4.666;2023-03-08T02:19:05;5.47;;;4.30;;
38615;SDS011;24370;51.986;4.666;2023-03-08T02:21:38;14.20;;;4.50;;
38615;SDS011;24370;51.986;4.666;2023-03-08T02:24:04;7.83;;;4.73;;
38615;SDS011;24370;51.986;4.666;2023-03-08T02:26:32;14.43;;;5.40;;
38615;SDS011;24370;51.986;4.666;2023-03-08T02:29:00;7.67;;;4.63;;
38615;SDS011;24370;51.986;4.666;2023-03-08T02:31:25;8.87;;;5.13;;
38615;SDS011;24370;51.986;4.666;2023-03-08T02:33:50;8.10;;;5.60;;
38615;SDS011;24370;51.986;4.666;2023-03-08T02:36:16;11.30;;;6.20;;
38615;SDS011;24370;51.986;4.666;2023-03-08T02:38:41;9.40;;;5.20;;
38615;SDS011;24370;51.986;4.666;2023-03-08T02:41:06;11.27;;;5.07;;
38615;SDS011;24370;51.986;4.666;2023-03-08T02:43:32;7.43;;;4.87;;
38615;SDS011;24370;51.986;4.666;2023-03-08T02:45:57;10.13;;;5.50;;
38615;SDS011;24370;51.986;4.666;2023-03-08T02:48:23;7.40;;;5.23;;
38615;SDS011;24370;51.986;4.666;2023-03-08T02:50:48;10.33;;;5.63;;
38615;SDS011;24370;51.986;4.666;2023-03-08T02:53:13;13.80;;;5.27;;
38615;SDS011;24370;51.986;4.666;2023-03-08T02:55:39;12.20;;;7.50;;
38615;SDS011;24370;51.986;4.666;2023-03-08T02:58:04;13.07;;;6.90;;
38615;SDS011;24370;51.986;4.666;2023-03-08T03:00:31;14.60;;;7.20;;
38615;SDS011;24370;51.986;4.666;2023-03-08T03:02:57;13.10;;;7.10;;
38615;SDS011;24370;51.986;4.666;2023-03-08T03:05:22;17.47;;;8.77;;
38615;SDS011;24370;51.986;4.666;2023-03-08T03:07:48;17.60;;;9.23;;
38615;SDS011;24370;51.986;4.666;2023-03-08T03:10:13;18.20;;;8.70;;
38615;SDS011;24370;51.986;4.666;2023-03-08T03:12:39;21.63;;;12.80;;
38615;SDS011;24370;51.986;4.666;2023-03-08T03:15:05;22.50;;;10.10;;
38615;SDS011;24370;51.986;4.666;2023-03-08T03:17:32;19.17;;;11.27;;
38615;SDS011;24370;51.986;4.666;2023-03-08T03:19:57;24.47;;;11.47;;
38615;SDS011;24370;51.986;4.666;2023-03-08T03:22:23;20.50;;;11.37;;
38615;SDS011;24370;51.986;4.666;2023-03-08T03:24:51;23.20;;;11.60;;
38615;SDS011;24370;51.986;4.666;2023-03-08T03:27:17;19.53;;;11.63;;
38615;SDS011;24370;51.986;4.666;2023-03-08T03:29:43;34.17;;;14.77;;
38615;SDS011;24370;51.986;4.666;2023-03-08T03:32:09;41.93;;;14.97;;
38615;SDS011;24370;51.986;4.666;2023-03-08T03:34:34;31.73;;;16.60;;
38615;SDS011;24370;51.986;4.666;2023-03-08T03:37:00;41.53;;;15.90;;
38615;SDS011;24370;51.986;4.666;2023-03-08T03:39:25;32.73;;;15.73;;
38615;SDS011;24370;51.986;4.666;2023-03-08T03:41:51;37.77;;;14.90;;
38615;SDS011;24370;51.986;4.666;2023-03-08T03:44:16;29.70;;;14.30;;
38615;SDS011;24370;51.986;4.666;2023-03-08T03:46:42;30.23;;;14.70;;
38615;SDS011;24370;51.986;4.666;2023-03-08T03:49:07;32.33;;;16.27;;
38615;SDS011;24370;51.986;4.666;2023-03-08T03:51:32;35.37;;;16.77;;
38615;SDS011;24370;51.986;4.666;2023-03-08T03:53:58;31.07;;;15.80;;
38615;SDS011;24370;51.986;4.666;2023-03-08T03:56:24;30.93;;;17.77;;
38615;SDS011;24370;51.986;4.666;2023-03-08T03:58:51;30.47;;;16.27;;
38615;SDS011;24370;51.986;4.666;2023-03-08T04:01:25;32.17;;;18.43;;
38615;SDS011;24370;51.986;4.666;2023-03-08T04:03:52;36.20;;;18.50;;
38615;SDS011;24370;51.986;4.666;2023-03-08T04:06:19;44.47;;;21.87;;
38615;SDS011;24370;51.986;4.666;2023-03-08T04:08:47;38.83;;;20.80;;
38615;SDS011;24370;51.986;4.666;2023-03-08T04:11:13;40.50;;;19.20;;
38615;SDS011;24370;51.986;4.666;2023-03-08T04:13:40;41.60;;;20.53;;
38615;SDS011;24370;51.986;4.666;2023-03-08T04:16:20;47.77;;;20.83;;
38615;SDS011;24370;51.986;4.666;2023-03-08T04:18:47;39.07;;;19.93;;
38615;SDS011;24370;51.986;4.666;2023-03-08T04:21:16;46.70;;;19.63;;
38615;SDS011;24370;51.986;4.666;2023-03-08T04:23:42;48.27;;;20.90;;
38615;SDS011;24370;51.986;4.666;2023-03-08T04:26:07;56.30;;;22.00;;
38615;SDS011;24370;51.986;4.666;2023-03-08T04:28:32;57.30;;;23.10;;
38615;SDS011;24370;51.986;4.666;2023-03-08T04:30:58;51.77;;;24.23;;
38615;SDS011;24370;51.986;4.666;2023-03-08T04:33:25;56.50;;;23.87;;
38615;SDS011;24370;51.986;4.666;2023-03-08T04:35:50;57.27;;;24.83;;
38615;SDS011;24370;51.986;4.666;2023-03-08T04:38:16;48.23;;;23.33;;
38615;SDS011;24370;51.986;4.666;2023-03-08T04:40:51;55.83;;;24.10;;
38615;SDS011;24370;51.986;4.666;2023-03-08T04:43:26;67.57;;;27.37;;
38615;SDS011;24370;51.986;4.666;2023-03-08T04:45:52;63.77;;;25.13;;
38615;SDS011;24370;51.986;4.666;2023-03-08T04:48:17;58.43;;;24.83;;
38615;SDS011;24370;51.986;4.666;2023-03-08T04:50:42;63.57;;;25.83;;
38615;SDS011;24370;51.986;4.666;2023-03-08T04:53:08;52.93;;;24.63;;
38615;SDS011;24370;51.986;4.666;2023-03-08T04:55:35;58.33;;;27.17;;
38615;SDS011;24370;51.986;4.666;2023-03-08T04:58:01;53.97;;;24.73;;
38615;SDS011;24370;51.986;4.666;2023-03-08T05:00:26;53.37;;;24.43;;
38615;SDS011;24370;51.986;4.666;2023-03-08T05:02:52;59.00;;;26.47;;
38615;SDS011;24370;51.986;4.666;2023-03-08T05:05:17;56.17;;;25.73;;
38615;SDS011;24370;51.986;4.666;2023-03-08T05:07:42;56.77;;;26.47;;
38615;SDS011;24370;51.986;4.666;2023-03-08T05:10:08;62.60;;;27.07;;
38615;SDS011;24370;51.986;4.666;2023-03-08T05:12:34;62.77;;;27.97;;
38615;SDS011;24370;51.986;4.666;2023-03-08T05:14:59;65.53;;;27.73;;
38615;SDS011;24370;51.986;4.666;2023-03-08T05:17:24;64.50;;;27.73;;
38615;SDS011;24370;51.986;4.666;2023-03-08T05:19:50;66.50;;;28.83;;
38615;SDS011;24370;51.986;4.666;2023-03-08T05:22:15;62.90;;;28.17;;
38615;SDS011;24370;51.986;4.666;2023-03-08T05:24:41;65.87;;;27.40;;
38615;SDS011;24370;51.986;4.666;2023-03-08T05:27:06;68.87;;;29.40;;
38615;SDS011;24370;51.986;4.666;2023-03-08T05:29:33;80.97;;;31.23;;
38615;SDS011;24370;51.986;4.666;2023-03-08T05:31:59;68.70;;;29.63;;
38615;SDS011;24370;51.986;4.666;2023-03-08T05:34:26;80.87;;;31.73;;
38615;SDS011;24370;51.986;4.666;2023-03-08T05:36:52;69.03;;;30.27;;
38615;SDS011;24370;51.986;4.666;2023-03-08T05:39:17;67.03;;;29.23;;
38615;SDS011;24370;51.986;4.666;2023-03-08T05:41:43;71.30;;;28.97;;
38615;SDS011;24370;51.986;4.666;2023-03-08T05:44:08;67.10;;;28.33;;
38615;SDS011;24370;51.986;4.666;2023-03-08T05:46:34;58.33;;;27.60;;
38615;SDS011;24370;51.986;4.666;2023-03-08T05:49:02;76.70;;;31.70;;
38615;SDS011;24370;51.986;4.666;2023-03-08T05:51:27;83.50;;;30.47;;
38615;SDS011;24370;51.986;4.666;2023-03-08T05:53:53;70.93;;;30.03;;
38615;SDS011;24370;51.986;4.666;2023-03-08T05:56:19;65.93;;;28.73;;
38615;SDS011;24370;51.986;4.666;2023-03-08T05:58:46;86.83;;;31.03;;
38615;SDS011;24370;51.986;4.666;2023-03-08T06:01:13;84.03;;;32.10;;
38615;SDS011;24370;51.986;4.666;2023-03-08T06:03:44;89.03;;;32.57;;
38615;SDS011;24370;51.986;4.666;2023-03-08T06:06:10;78.77;;;30.70;;
38615;SDS011;24370;51.986;4.666;2023-03-08T06:08:36;84.57;;;28.77;;
38615;SDS011;24370;51.986;4.666;2023-03-08T06:11:02;72.90;;;28.57;;
38615;SDS011;24370;51.986;4.666;2023-03-08T06:13:27;99.87;;;30.03;;
38615;SDS011;24370;51.986;4.666;2023-03-08T06:15:53;93.43;;;29.43;;
38615;SDS011;24370;51.986;4.666;2023-03-08T06:18:20;92.80;;;29.27;;
38615;SDS011;24370;51.986;4.666;2023-03-08T06:20:54;117.90;;;32.83;;
38615;SDS011;24370;51.986;4.666;2023-03-08T06:23:21;93.83;;;30.73;;
38615;SDS011;24370;51.986;4.666;2023-03-08T06:25:47;78.07;;;30.57;;
38615;SDS011;24370;51.986;4.666;2023-03-08T06:28:12;100.67;;;35.07;;
38615;SDS011;24370;51.986;4.666;2023-03-08T06:30:37;79.03;;;31.23;;
38615;SDS011;24370;51.986;4.666;2023-03-08T06:33:03;81.03;;;31.50;;
38615;SDS011;24370;51.986;4.666;2023-03-08T06:35:28;79.47;;;30.57;;
38615;SDS011;24370;51.986;4.666;2023-03-08T06:37:53;84.70;;;31.37;;
38615;SDS011;24370;51.986;4.666;2023-03-08T06:40:19;94.00;;;31.67;;
38615;SDS011;24370;51.986;4.666;2023-03-08T06:42:44;77.70;;;31.50;;
38615;SDS011;24370;51.986;4.666;2023-03-08T06:45:10;103.23;;;33.17;;
38615;SDS011;24370;51.986;4.666;2023-03-08T06:47:35;98.23;;;36.33;;
38615;SDS011;24370;51.986;4.666;2023-03-08T06:50:01;88.13;;;32.00;;
38615;SDS011;24370;51.986;4.666;2023-03-08T06:52:26;95.97;;;31.97;;
38615;SDS011;24370;51.986;4.666;2023-03-08T06:54:51;108.03;;;33.50;;
38615;SDS011;24370;51.986;4.666;2023-03-08T06:57:17;100.70;;;34.53;;
38615;SDS011;24370;51.986;4.666;2023-03-08T06:59:42;117.33;;;35.27;;
38615;SDS011;24370;51.986;4.666;2023-03-08T07:02:08;143.37;;;37.23;;
38615;SDS011;24370;51.986;4.666;2023-03-08T07:04:34;153.13;;;40.70;;
38615;SDS011;24370;51.986;4.666;2023-03-08T07:06:59;129.17;;;37.60;;
38615;SDS011;24370;51.986;4.666;2023-03-08T07:09:25;121.10;;;34.50;;
38615;SDS011;24370;51.986;4.666;2023-03-08T07:11:50;128.70;;;38.20;;
38615;SDS011;24370;51.986;4.666;2023-03-08T07:14:15;157.70;;;39.70;;
38615;SDS011;24370;51.986;4.666;2023-03-08T07:16:41;146.10;;;39.20;;
38615;SDS011;24370;51.986;4.666;2023-03-08T07:19:06;153.73;;;41.20;;
38615;SDS011;24370;51.986;4.666;2023-03-08T07:21:32;139.07;;;36.87;;
38615;SDS011;24370;51.986;4.666;2023-03-08T07:23:57;112.63;;;34.80;;
38615;SDS011;24370;51.986;4.666;2023-03-08T07:26:22;115.93;;;37.53;;
38615;SDS011;24370;51.986;4.666;2023-03-08T07:28:48;104.53;;;38.60;;
38615;SDS011;24370;51.986;4.666;2023-03-08T07:31:15;125.03;;;39.67;;
38615;SDS011;24370;51.986;4.666;2023-03-08T07:33:41;121.00;;;38.30;;
38615;SDS011;24370;51.986;4.666;2023-03-08T07:36:06;103.77;;;37.03;;
38615;SDS011;24370;51.986;4.666;2023-03-08T07:38:32;113.13;;;38.60;;
38615;SDS011;24370;51.986;4.666;2023-03-08T07:40:57;103.80;;;39.23;;
38615;SDS011;24370;51.986;4.666;2023-03-08T07:43:22;115.37;;;39.87;;
38615;SDS011;24370;51.986;4.666;2023-03-08T07:45:48;112.13;;;39.07;;
38615;SDS011;24370;51.986;4.666;2023-03-08T07:48:13;101.30;;;37.27;;
38615;SDS011;24370;51.986;4.666;2023-03-08T07:50:39;101.97;;;35.60;;
38615;SDS011;24370;51.986;4.666;2023-03-08T07:53:04;89.37;;;34.37;;
38615;SDS011;24370;51.986;4.666;2023-03-08T07:55:31;87.90;;;35.43;;
38615;SDS011;24370;51.986;4.666;2023-03-08T07:57:57;88.50;;;34.37;;
38615;SDS011;24370;51.986;4.666;2023-03-08T08:00:22;87.60;;;34.47;;
38615;SDS011;24370;51.986;4.666;2023-03-08T08:02:48;91.13;;;33.20;;
38615;SDS011;24370;51.986;4.666;2023-03-08T08:05:13;83.00;;;32.77;;
38615;SDS011;24370;51.986;4.666;2023-03-08T08:07:39;85.93;;;35.20;;
38615;SDS011;24370;51.986;4.666;2023-03-08T08:10:04;84.63;;;35.13;;
38615;SDS011;24370;51.986;4.666;2023-03-08T08:12:30;77.17;;;31.63;;
38615;SDS011;24370;51.986;4.666;2023-03-08T08:14:57;89.20;;;32.30;;
38615;SDS011;24370;51.986;4.666;2023-03-08T08:17:24;81.73;;;34.10;;
38615;SDS011;24370;51.986;4.666;2023-03-08T08:19:49;81.20;;;31.50;;
38615;SDS011;24370;51.986;4.666;2023-03-08T08:22:15;80.70;;;32.43;;
38615;SDS011;24370;51.986;4.666;2023-03-08T08:24:40;78.77;;;31.67;;
38615;SDS011;24370;51.986;4.666;2023-03-08T08:27:05;77.67;;;31.27;;
38615;SDS011;24370;51.986;4.666;2023-03-08T08:29:31;75.63;;;31.93;;
38615;SDS011;24370;51.986;4.666;2023-03-08T08:31:56;63.63;;;26.47;;
38615;SDS011;24370;51.986;4.666;2023-03-08T08:34:22;71.40;;;28.27;;
38615;SDS011;24370;51.986;4.666;2023-03-08T08:36:48;68.83;;;28.47;;
38615;SDS011;24370;51.986;4.666;2023-03-08T08:39:13;71.43;;;28.13;;
38615;SDS011;24370;51.986;4.666;2023-03-08T08:41:39;62.40;;;27.33;;
38615;SDS011;24370;51.986;4.666;2023-03-08T08:44:04;57.23;;;22.13;;
38615;SDS011;24370;51.986;4.666;2023-03-08T08:46:30;63.97;;;23.77;;
38615;SDS011;24370;51.986;4.666;2023-03-08T08:48:58;57.17;;;24.07;;
38615;SDS011;24370;51.986;4.666;2023-03-08T08:51:23;57.10;;;23.90;;
38615;SDS011;24370;51.986;4.666;2023-03-08T08:53:48;61.20;;;24.93;;
38615;SDS011;24370;51.986;4.666;2023-03-08T08:56:15;56.43;;;23.37;;
38615;SDS011;24370;51.986;4.666;2023-03-08T08:58:42;65.57;;;24.30;;
38615;SDS011;24370;51.986;4.666;2023-03-08T09:01:15;57.07;;;23.97;;
38615;SDS011;24370;51.986;4.666;2023-03-08T09:03:48;59.10;;;25.07;;
38615;SDS011;24370;51.986;4.666;2023-03-08T09:06:14;56.50;;;23.83;;
38615;SDS011;24370;51.986;4.666;2023-03-08T09:08:43;59.97;;;24.33;;
38615;SDS011;24370;51.986;4.666;2023-03-08T09:11:09;62.73;;;25.87;;
38615;SDS011;24370;51.986;4.666;2023-03-08T09:13:35;63.07;;;26.50;;
38615;SDS011;24370;51.986;4.666;2023-03-08T09:16:13;67.77;;;24.83;;
38615;SDS011;24370;51.986;4.666;2023-03-08T09:18:44;54.90;;;21.27;;
38615;SDS011;24370;51.986;4.666;2023-03-08T09:21:10;56.53;;;23.43;;
38615;SDS011;24370;51.986;4.666;2023-03-08T09:23:36;43.40;;;19.67;;
38615;SDS011;24370;51.986;4.666;2023-03-08T09:26:01;42.00;;;18.50;;
38615;SDS011;24370;51.986;4.666;2023-03-08T09:28:28;43.93;;;20.00;;
38615;SDS011;24370;51.986;4.666;2023-03-08T09:30:54;42.17;;;17.80;;
38615;SDS011;24370;51.986;4.666;2023-03-08T09:33:19;39.90;;;18.53;;
38615;SDS011;24370;51.986;4.666;2023-03-08T09:35:53;34.40;;;15.50;;
38615;SDS011;24370;51.986;4.666;2023-03-08T09:38:20;35.67;;;16.67;;
38615;SDS011;24370;51.986;4.666;2023-03-08T09:40:47;33.97;;;16.40;;
38615;SDS011;24370;51.986;4.666;2023-03-08T09:44:17;35.07;;;16.07;;
38615;SDS011;24370;51.986;4.666;2023-03-08T09:46:42;31.13;;;15.37;;
38615;SDS011;24370;51.986;4.666;2023-03-08T09:49:26;28.77;;;14.57;;
38615;SDS011;24370;51.986;4.666;2023-03-08T09:52:15;31.97;;;15.70;;
38615;SDS011;24370;51.986;4.666;2023-03-08T09:54:44;28.87;;;15.73;;
38615;SDS011;24370;51.986;4.666;2023-03-08T09:57:24;28.37;;;13.07;;
38615;SDS011;24370;51.986;4.666;2023-03-08T09:59:54;27.07;;;13.23;;
38615;SDS011;24370;51.986;4.666;2023-03-08T10:02:44;24.80;;;12.27;;
38615;SDS011;24370;51.986;4.666;2023-03-08T10:05:35;23.67;;;11.87;;
38615;SDS011;24370;51.986;4.666;2023-03-08T10:08:17;29.53;;;13.93;;
38615;SDS011;24370;51.986;4.666;2023-03-08T10:11:05;26.47;;;11.90;;
38615;SDS011;24370;51.986;4.666;2023-03-08T10:13:39;25.70;;;11.07;;
38615;SDS011;24370;51.986;4.666;2023-03-08T10:16:28;22.43;;;10.73;;
38615;SDS011;24370;51.986;4.666;2023-03-08T10:19:11;24.08;;;10.90;;
38615;SDS011;24370;51.986;4.666;2023-03-08T10:21:42;23.27;;;11.13;;
38615;SDS011;24370;51.986;4.666;2023-03-08T10:24:17;19.10;;;10.33;;
38615;SDS011;24370;51.986;4.666;2023-03-08T10:26:44;20.63;;;11.00;;
38615;SDS011;24370;51.986;4.666;2023-03-08T10:29:11;24.70;;;10.73;;
38615;SDS011;24370;51.986;4.666;2023-03-08T10:31:38;22.60;;;10.60;;
38615;SDS011;24370;51.986;4.666;2023-03-08T10:34:14;22.30;;;10.70;;
38615;SDS011;24370;51.986;4.666;2023-03-08T10:37:05;16.63;;;9.67;;
38615;SDS011;24370;51.986;4.666;2023-03-08T10:39:31;16.97;;;9.30;;
38615;SDS011;24370;51.986;4.666;2023-03-08T10:41:57;19.20;;;10.23;;
38615;SDS011;24370;51.986;4.666;2023-03-08T10:44:33;18.63;;;9.30;;
38615;SDS011;24370;51.986;4.666;2023-03-08T10:49:44;16.20;;;9.40;;
38615;SDS011;24370;51.986;4.666;2023-03-08T10:52:20;18.90;;;9.13;;
38615;SDS011;24370;51.986;4.666;2023-03-08T11:00:30;22.27;;;9.60;;
38615;SDS011;24370;51.986;4.666;2023-03-08T11:05:58;22.47;;;9.97;;
38615;SDS011;24370;51.986;4.666;2023-03-08T11:08:31;21.53;;;10.50;;
38615;SDS011;24370;51.986;4.666;2023-03-08T11:11:09;18.40;;;10.20;;
38615;SDS011;24370;51.986;4.666;2023-03-08T11:13:39;21.73;;;9.90;;
38615;SDS011;24370;51.986;4.666;2023-03-08T11:35:01;16.57;;;8.60;;
38615;SDS011;24370;51.986;4.666;2023-03-08T11:37:48;18.37;;;9.40;;
38615;SDS011;24370;51.986;4.666;2023-03-08T11:40:20;18.80;;;9.00;;
38615;SDS011;24370;51.986;4.666;2023-03-08T11:59:27;17.90;;;9.23;;
38615;SDS011;24370;51.986;4.666;2023-03-08T12:04:38;14.53;;;8.73;;
38615;SDS011;24370;51.986;4.666;2023-03-08T12:07:14;18.17;;;10.23;;
38615;SDS011;24370;51.986;4.666;2023-03-08T12:10:01;17.60;;;10.43;;
38615;SDS011;24370;51.986;4.666;2023-03-08T12:12:36;16.30;;;9.37;;
38615;SDS011;24370;51.986;4.666;2023-03-08T12:18:05;22.40;;;9.87;;
38615;SDS011;24370;51.986;4.666;2023-03-08T12:20:33;18.47;;;9.53;;
38615;SDS011;24370;51.986;4.666;2023-03-08T12:25:50;17.40;;;9.53;;
38615;SDS011;24370;51.986;4.666;2023-03-08T12:28:25;20.63;;;8.60;;
38615;SDS011;24370;51.986;4.666;2023-03-08T12:33:45;24.57;;;8.73;;
38615;SDS011;24370;51.986;4.666;2023-03-08T12:36:11;18.50;;;9.17;;
38615;SDS011;24370;51.986;4.666;2023-03-08T12:38:37;25.13;;;8.90;;
38615;SDS011;24370;51.986;4.666;2023-03-08T12:44:04;16.37;;;8.67;;
38615;SDS011;24370;51.986;4.666;2023-03-08T12:46:49;18.20;;;8.63;;
38615;SDS011;24370;51.986;4.666;2023-03-08T12:51:58;17.13;;;8.87;;
38615;SDS011;24370;51.986;4.666;2023-03-08T12:54:28;14.80;;;8.02;;
38615;SDS011;24370;51.986;4.666;2023-03-08T12:56:55;14.47;;;8.40;;
38615;SDS011;24370;51.986;4.666;2023-03-08T12:59:27;17.63;;;9.03;;
38615;SDS011;24370;51.986;4.666;2023-03-08T13:07:07;13.87;;;7.97;;
38615;SDS011;24370;51.986;4.666;2023-03-08T13:09:42;17.00;;;9.60;;
38615;SDS011;24370;51.986;4.666;2023-03-08T13:19:54;16.50;;;9.17;;
38615;SDS011;24370;51.986;4.666;2023-03-08T13:24:54;17.60;;;9.70;;
38615;SDS011;24370;51.986;4.666;2023-03-08T13:30:22;21.83;;;9.30;;
38615;SDS011;24370;51.986;4.666;2023-03-08T13:32:51;18.20;;;8.70;;
38615;SDS011;24370;51.986;4.666;2023-03-08T13:35:17;19.37;;;8.83;;
38615;SDS011;24370;51.986;4.666;2023-03-08T13:37:42;19.90;;;9.57;;
38615;SDS011;24370;51.986;4.666;2023-03-08T13:40:20;14.90;;;8.43;;
38615;SDS011;24370;51.986;4.666;2023-03-08T13:45:27;24.67;;;10.60;;
38615;SDS011;24370;51.986;4.666;2023-03-08T13:47:54;24.73;;;10.37;;
38615;SDS011;24370;51.986;4.666;2023-03-08T13:50:33;28.40;;;11.60;;
38615;SDS011;24370;51.986;4.666;2023-03-08T13:53:01;26.13;;;11.80;;
38615;SDS011;24370;51.986;4.666;2023-03-08T13:55:32;26.17;;;11.60;;
38615;SDS011;24370;51.986;4.666;2023-03-08T13:58:00;26.90;;;13.00;;
38615;SDS011;24370;51.986;4.666;2023-03-08T14:00:30;28.07;;;11.90;;
38615;SDS011;24370;51.986;4.666;2023-03-08T14:03:00;23.07;;;11.37;;
38615;SDS011;24370;51.986;4.666;2023-03-08T14:05:29;26.80;;;12.37;;
38615;SDS011;24370;51.986;4.666;2023-03-08T14:08:03;28.53;;;12.13;;
38615;SDS011;24370;51.986;4.666;2023-03-08T14:13:04;26.20;;;12.33;;
38615;SDS011;24370;51.986;4.666;2023-03-08T14:15:32;26.73;;;9.90;;
38615;SDS011;24370;51.986;4.666;2023-03-08T14:18:01;29.60;;;12.07;;
38615;SDS011;24370;51.986;4.666;2023-03-08T14:20:28;25.53;;;11.67;;
38615;SDS011;24370;51.986;4.666;2023-03-08T14:22:54;36.43;;;12.90;;
38615;SDS011;24370;51.986;4.666;2023-03-08T14:25:24;29.00;;;12.13;;
38615;SDS011;24370;51.986;4.666;2023-03-08T14:27:50;28.40;;;12.17;;
38615;SDS011;24370;51.986;4.666;2023-03-08T14:30:20;35.17;;;13.47;;
38615;SDS011;24370;51.986;4.666;2023-03-08T14:33:00;28.90;;;11.80;;
38615;SDS011;24370;51.986;4.666;2023-03-08T14:35:33;28.57;;;12.60;;
38615;SDS011;24370;51.986;4.666;2023-03-08T14:38:01;29.13;;;12.73;;
38615;SDS011;24370;51.986;4.666;2023-03-08T14:40:33;29.50;;;12.70;;
38615;SDS011;24370;51.986;4.666;2023-03-08T14:43:00;26.00;;;11.73;;
38615;SDS011;24370;51.986;4.666;2023-03-08T14:48:20;29.03;;;12.53;;
38615;SDS011;24370;51.986;4.666;2023-03-08T14:53:24;31.97;;;13.27;;
38615;SDS011;24370;51.986;4.666;2023-03-08T14:56:10;34.70;;;12.57;;
38615;SDS011;24370;51.986;4.666;2023-03-08T14:58:39;35.53;;;13.57;;
38615;SDS011;24370;51.986;4.666;2023-03-08T15:01:06;34.47;;;13.27;;
38615;SDS011;24370;51.986;4.666;2023-03-08T15:03:31;29.50;;;13.17;;
38615;SDS011;24370;51.986;4.666;2023-03-08T15:05:58;33.60;;;14.73;;
38615;SDS011;24370;51.986;4.666;2023-03-08T15:08:29;39.80;;;15.23;;
38615;SDS011;24370;51.986;4.666;2023-03-08T15:10:54;38.93;;;14.23;;
38615;SDS011;24370;51.986;4.666;2023-03-08T15:13:20;41.70;;;14.90;;
38615;SDS011;24370;51.986;4.666;2023-03-08T15:15:47;47.47;;;15.70;;
38615;SDS011;24370;51.986;4.666;2023-03-08T15:18:13;42.23;;;16.93;;
38615;SDS011;24370;51.986;4.666;2023-03-08T15:20:40;38.63;;;14.97;;
38615;SDS011;24370;51.986;4.666;2023-03-08T15:23:13;35.83;;;14.90;;
38615;SDS011;24370;51.986;4.666;2023-03-08T15:25:43;32.80;;;13.80;;
38615;SDS011;24370;51.986;4.666;2023-03-08T15:28:09;37.50;;;14.60;;
38615;SDS011;24370;51.986;4.666;2023-03-08T15:30:39;39.10;;;15.63;;
38615;SDS011;24370;51.986;4.666;2023-03-08T15:33:04;41.97;;;14.93;;
38615;SDS011;24370;51.986;4.666;2023-03-08T15:35:30;39.90;;;15.67;;
38615;SDS011;24370;51.986;4.666;2023-03-08T15:37:55;41.37;;;15.13;;
38615;SDS011;24370;51.986;4.666;2023-03-08T15:40:25;38.23;;;14.63;;
38615;SDS011;24370;51.986;4.666;2023-03-08T15:42:52;29.50;;;11.47;;
38615;SDS011;24370;51.986;4.666;2023-03-08T15:45:18;27.00;;;12.20;;
38615;SDS011;24370;51.986;4.666;2023-03-08T15:47:53;29.30;;;12.33;;
38615;SDS011;24370;51.986;4.666;2023-03-08T15:50:19;30.27;;;12.20;;
38615;SDS011;24370;51.986;4.666;2023-03-08T15:52:45;28.90;;;12.67;;
38615;SDS011;24370;51.986;4.666;2023-03-08T15:55:11;30.73;;;13.47;;
38615;SDS011;24370;51.986;4.666;2023-03-08T15:57:38;30.40;;;12.27;;
38615;SDS011;24370;51.986;4.666;2023-03-08T16:00:04;35.20;;;13.70;;
38615;SDS011;24370;51.986;4.666;2023-03-08T16:02:35;35.40;;;13.97;;
38615;SDS011;24370;51.986;4.666;2023-03-08T16:05:02;34.77;;;13.70;;
38615;SDS011;24370;51.986;4.666;2023-03-08T16:07:29;41.93;;;15.47;;